Airfield :
LOGIN :

Register | Disclaimer

   EN    FR    IT 

 










Legend :    VFR   Marginal VFR   IFR   Intensive IFR   Very Intensive IFR
Visi :
Ceiling :
>= 8 km
>= 3000ft
5 to 8 km
1000 to 3000 ft
1500m to 5 km
500 to 1000 ft
800 to 1500m
200 to 500 ft
< 800m
< 200 ft
Symbols :   Thunderstorms  Fog  Heavy snow  Heavy precipitations  Wind > 20 kt
SIGMETs :     Misc.  Thunderstorms  Icing  Turbulence  Mountain Waves  Volcanic Ashes






- Airport Elevation : 90 ft
- IATA code : NTE


LFRS - Nantes

CURRENT METAR :
  • 200500Z AUTO 18012KT CAVOK 16/12 Q1005 TEMPO 4500 -RA

EXPIRED METARs :
  • 200430Z AUTO 18011KT CAVOK 16/12 Q1005 TEMPO 4500 -RA
  • 200400Z AUTO 18013KT CAVOK 16/12 Q1005 TEMPO 4500 -RA
  • 200330Z AUTO 18014KT CAVOK 16/12 Q1004 TEMPO 4500 -RA
  • 200300Z AUTO 19013KT CAVOK 17/12 Q1005 TEMPO 4500 -RA
  • 200230Z AUTO 18014KT CAVOK 16/12 Q1004 TEMPO 4500 -RA

TAF TAF LFRS
Valid from the 20 at 00:00 until the 21 at 06:00 UTC


192300Z 2000/2106 18014KT CAVOK
TEMPO 2004/2008 4500 -RA
TEMPO 2016/2022 4500 -RA
TEMPO 2022/2023 3000 RA BKN008
BECMG 2102/2104 18020G45KT
ATIS : +33 2 40 05 12 74



MET'MAP, your aeronautical weather chart ! - Copyright ORBIFLY December 2007 - Disclaimer

ORBIFLY MET'MAP TEAM :

Programming & Development : Alexandra Zaïnal
Concept & original design : Baudouin d'Aumeries
Assistance for programming : Marc-Olivier Méhu
Technical & hardware support : Manuel Goepfert

Contact : metmap@orbifly.com




SOURCES & CREDITS :

   NOAA